createdAt,value
2022-07-29T00:01:55.197Z,5.50
2022-07-29T00:04:25.370Z,6.00
2022-07-29T00:06:55.252Z,6.13
2022-07-29T00:09:25.122Z,5.23
2022-07-29T00:11:56.071Z,5.73
2022-07-29T00:14:25.827Z,5.83
2022-07-29T00:16:56.962Z,5.43
2022-07-29T00:19:26.290Z,5.17
2022-07-29T00:21:56.006Z,5.00
2022-07-29T00:24:25.702Z,5.30
2022-07-29T00:26:55.459Z,5.23
2022-07-29T00:29:34.016Z,4.60
2022-07-29T00:32:05.599Z,5.00
2022-07-29T00:34:52.126Z,5.43
2022-07-29T00:37:21.495Z,5.20
2022-07-29T00:39:51.927Z,4.63
2022-07-29T00:42:21.688Z,5.20
2022-07-29T00:44:51.261Z,5.17
2022-07-29T00:47:22.620Z,5.00
2022-07-29T00:49:52.158Z,5.37
2022-07-29T00:52:21.721Z,4.27
2022-07-29T00:54:51.379Z,5.00
2022-07-29T00:57:21.303Z,4.70
2022-07-29T00:59:50.602Z,5.07
2022-07-29T01:02:22.647Z,5.27
2022-07-29T01:04:52.029Z,4.90
2022-07-29T01:07:22.110Z,4.27
2022-07-29T01:09:51.628Z,4.27
2022-07-29T01:12:26.163Z,4.93
2022-07-29T01:14:56.909Z,4.37
2022-07-29T01:17:31.830Z,4.53
2022-07-29T01:20:06.181Z,4.30
2022-07-29T01:22:47.609Z,4.80
2022-07-29T01:25:48.589Z,4.03
2022-07-29T01:28:57.275Z,4.40
2022-07-29T01:31:38.498Z,3.80
2022-07-29T01:34:33.893Z,4.20
2022-07-29T01:37:09.299Z,4.80
2022-07-29T01:39:40.141Z,5.37
2022-07-29T01:42:25.857Z,5.30
2022-07-29T01:45:00.477Z,6.27
2022-07-29T01:47:40.459Z,6.27
2022-07-29T01:50:13.655Z,4.70
2022-07-29T01:52:48.733Z,3.97
2022-07-29T01:55:23.651Z,4.43
2022-07-29T01:57:52.720Z,4.20
2022-07-29T02:00:24.060Z,4.27
2022-07-29T02:02:54.255Z,4.10
2022-07-29T02:05:24.977Z,4.07
2022-07-29T02:07:56.750Z,4.07
2022-07-29T02:10:27.819Z,4.33
2022-07-29T02:12:59.325Z,4.40
2022-07-29T02:15:32.698Z,4.17
2022-07-29T02:18:05.823Z,3.93
2022-07-29T02:20:34.989Z,4.13
2022-07-29T02:23:05.665Z,4.07
2022-07-29T02:25:37.543Z,4.97
2022-07-29T02:28:09.893Z,4.80
2022-07-29T02:30:44.092Z,4.50
2022-07-29T02:33:16.161Z,4.27
2022-07-29T02:35:49.097Z,4.13
2022-07-29T02:38:36.873Z,5.30
2022-07-29T02:41:12.979Z,5.63
2022-07-29T02:43:44.137Z,6.33
2022-07-29T02:46:28.363Z,5.10
2022-07-29T02:49:03.283Z,5.13
2022-07-29T02:51:44.333Z,4.87
2022-07-29T02:54:21.324Z,6.10
2022-07-29T02:56:53.741Z,6.17
2022-07-29T02:59:26.921Z,6.07
2022-07-29T03:01:58.370Z,5.87
2022-07-29T03:04:30.719Z,5.93
2022-07-29T03:07:02.199Z,5.47
2022-07-29T03:09:32.096Z,5.27
2022-07-29T03:12:01.926Z,5.20
2022-07-29T03:14:31.963Z,5.77
2022-07-29T03:17:03.612Z,5.33
2022-07-29T03:19:32.962Z,5.90
2022-07-29T03:22:02.591Z,6.37
2022-07-29T03:24:33.446Z,5.30
2022-07-29T03:27:04.093Z,5.70
2022-07-29T03:29:34.558Z,5.80
2022-07-29T03:32:09.104Z,4.80
2022-07-29T03:34:40.124Z,4.97
2022-07-29T03:37:10.255Z,4.83
2022-07-29T03:39:43.237Z,7.97
2022-07-29T03:42:15.592Z,5.43
2022-07-29T03:44:50.859Z,4.07
2022-07-29T03:47:49.897Z,4.80
2022-07-29T03:50:20.828Z,4.37
2022-07-29T03:52:50.749Z,4.23
2022-07-29T03:55:19.978Z,4.47
2022-07-29T03:57:49.480Z,3.43
2022-07-29T04:00:20.880Z,4.17
2022-07-29T04:02:53.014Z,3.77
2022-07-29T04:05:23.081Z,3.97
2022-07-29T04:07:52.171Z,3.43
2022-07-29T04:10:26.314Z,3.23
2022-07-29T04:13:03.360Z,3.90
2022-07-29T04:15:32.798Z,3.20
2022-07-29T04:18:03.594Z,3.30
2022-07-29T04:20:32.832Z,3.20
2022-07-29T04:23:02.683Z,3.63
2022-07-29T04:25:32.620Z,2.90
2022-07-29T04:28:04.797Z,3.20
2022-07-29T04:30:35.510Z,3.17
2022-07-29T04:33:08.155Z,3.20
2022-07-29T04:35:49.715Z,2.57
2022-07-29T04:38:19.304Z,3.47
2022-07-29T04:40:49.752Z,2.93
2022-07-29T04:43:21.244Z,2.73
2022-07-29T04:45:53.283Z,2.20
2022-07-29T04:48:28.642Z,2.87
2022-07-29T04:50:59.129Z,2.43
2022-07-29T04:53:29.578Z,2.47
2022-07-29T04:55:58.680Z,2.63
2022-07-29T04:58:28.495Z,2.60
2022-07-29T05:00:58.190Z,2.23
2022-07-29T05:03:28.614Z,2.47
2022-07-29T05:05:57.392Z,2.63
2022-07-29T05:08:27.049Z,2.50
2022-07-29T05:10:56.615Z,2.50
2022-07-29T05:13:25.633Z,2.37
2022-07-29T05:15:55.167Z,2.83
2022-07-29T05:18:26.189Z,2.33
2022-07-29T05:20:56.929Z,2.10
2022-07-29T05:23:26.014Z,2.53
2022-07-29T05:25:56.742Z,2.43
2022-07-29T05:28:26.040Z,2.07
2022-07-29T05:30:55.936Z,1.57
2022-07-29T05:33:34.848Z,1.97
2022-07-29T05:36:08.639Z,2.20
2022-07-29T05:38:38.808Z,1.93
2022-07-29T05:41:08.211Z,1.80
2022-07-29T05:43:38.389Z,1.90
2022-07-29T05:46:08.250Z,1.70
2022-07-29T05:48:38.351Z,2.10
2022-07-29T05:51:09.459Z,1.70
2022-07-29T05:53:39.669Z,1.67
2022-07-29T05:56:10.508Z,1.70
2022-07-29T05:58:40.822Z,1.90
2022-07-29T06:01:10.048Z,1.93
2022-07-29T06:03:40.001Z,2.43
2022-07-29T06:06:11.239Z,1.57
2022-07-29T06:08:42.069Z,1.77
2022-07-29T06:11:11.316Z,1.83
2022-07-29T06:13:40.904Z,2.17
2022-07-29T06:16:10.400Z,1.70
2022-07-29T06:18:45.583Z,1.90
2022-07-29T06:21:17.771Z,1.73
2022-07-29T06:23:48.228Z,1.80
2022-07-29T06:26:18.064Z,1.80
2022-07-29T06:28:47.232Z,1.63
2022-07-29T06:31:16.677Z,2.15
2022-07-29T06:33:47.007Z,1.80
2022-07-29T06:36:17.923Z,1.43
2022-07-29T06:38:51.274Z,1.23
2022-07-29T06:41:21.583Z,1.83
2022-07-29T06:43:54.746Z,1.57
2022-07-29T06:46:25.546Z,1.60
2022-07-29T06:48:55.752Z,1.65
2022-07-29T06:51:26.635Z,1.67
2022-07-29T06:53:59.979Z,1.23
2022-07-29T06:56:39.284Z,1.30
2022-07-29T06:59:09.946Z,1.98
2022-07-29T07:01:41.178Z,2.33
2022-07-29T07:04:11.955Z,1.80
2022-07-29T07:06:43.484Z,1.27
2022-07-29T07:09:13.637Z,1.88
2022-07-29T07:11:42.907Z,1.50
2022-07-29T07:14:12.729Z,1.70
2022-07-29T07:16:42.325Z,1.48
2022-07-29T07:19:11.786Z,1.58
2022-07-29T07:21:45.606Z,1.60
2022-07-29T07:24:15.975Z,1.50
2022-07-29T07:26:47.406Z,1.50
2022-07-29T07:29:17.623Z,1.15
2022-07-29T07:31:47.273Z,1.20
2022-07-29T07:34:17.080Z,1.50
2022-07-29T07:36:59.046Z,1.60
2022-07-29T07:39:29.092Z,1.42
2022-07-29T07:41:58.289Z,1.52
2022-07-29T07:44:28.979Z,1.65
2022-07-29T07:46:57.537Z,1.45
2022-07-29T07:49:33.008Z,1.60
2022-07-29T07:52:04.611Z,1.85
2022-07-29T07:54:35.581Z,1.30
2022-07-29T07:57:05.567Z,1.30
2022-07-29T07:59:35.817Z,1.30
2022-07-29T08:02:06.220Z,1.50
2022-07-29T08:04:37.101Z,1.50
2022-07-29T08:07:09.225Z,1.70
2022-07-29T08:09:39.854Z,1.65
2022-07-29T08:12:09.290Z,2.05
2022-07-29T08:14:38.794Z,1.50
2022-07-29T08:17:09.725Z,1.33
2022-07-29T08:19:39.887Z,1.60
2022-07-29T08:22:12.048Z,1.50
2022-07-29T08:24:54.092Z,1.50
2022-07-29T08:27:43.429Z,1.77
2022-07-29T08:30:13.975Z,1.80
2022-07-29T08:32:53.557Z,1.90
2022-07-29T08:35:24.696Z,1.83
2022-07-29T08:37:56.039Z,2.17
2022-07-29T08:40:30.569Z,2.20
2022-07-29T08:43:02.466Z,2.33
2022-07-29T08:45:33.241Z,1.57
2022-07-29T08:48:03.286Z,1.70
2022-07-29T08:50:32.489Z,1.83
2022-07-29T08:53:03.222Z,2.10
2022-07-29T08:55:32.438Z,1.53
2022-07-29T08:58:02.108Z,1.87
2022-07-29T09:00:31.560Z,1.73
2022-07-29T09:03:02.122Z,1.60
2022-07-29T09:05:31.838Z,1.70
2022-07-29T09:08:03.987Z,1.63
2022-07-29T09:10:33.892Z,1.45
2022-07-29T09:13:03.583Z,1.60
2022-07-29T09:15:33.124Z,1.85
2022-07-29T09:18:03.373Z,1.60
2022-07-29T09:20:52.570Z,1.70
2022-07-29T09:23:24.520Z,1.95
2022-07-29T09:25:56.503Z,2.13
2022-07-29T09:28:26.774Z,2.03
2022-07-29T09:30:57.457Z,2.00
2022-07-29T09:33:35.962Z,1.87
2022-07-29T09:36:08.393Z,1.50
2022-07-29T09:38:40.487Z,1.60
2022-07-29T09:41:11.619Z,2.00
2022-07-29T09:43:41.812Z,1.47
2022-07-29T09:46:15.753Z,1.83
2022-07-29T09:48:46.218Z,1.70
2022-07-29T09:51:25.581Z,1.63
2022-07-29T09:54:02.664Z,2.47
2022-07-29T09:56:42.852Z,1.60
2022-07-29T09:59:13.309Z,1.90
2022-07-29T10:01:42.448Z,1.97
2022-07-29T10:04:13.089Z,1.80
2022-07-29T10:07:04.630Z,1.80
2022-07-29T10:09:37.565Z,1.50
2022-07-29T10:12:10.166Z,1.70
2022-07-29T10:14:40.577Z,1.47
2022-07-29T10:17:12.913Z,2.23
2022-07-29T10:19:43.438Z,2.00
2022-07-29T10:22:15.018Z,1.97
2022-07-29T10:24:46.919Z,2.07
2022-07-29T10:27:16.170Z,2.30
2022-07-29T10:29:45.573Z,1.77
2022-07-29T10:32:38.176Z,1.97
2022-07-29T10:35:21.287Z,1.97
2022-07-29T10:38:16.645Z,1.87
2022-07-29T10:41:23.221Z,1.67
2022-07-29T10:43:54.819Z,1.80
2022-07-29T10:46:25.558Z,2.13
2022-07-29T10:49:11.900Z,1.60
2022-07-29T10:52:00.053Z,1.67
2022-07-29T10:54:53.770Z,1.87
2022-07-29T10:57:53.528Z,2.07
2022-07-29T11:00:35.453Z,1.70
2022-07-29T11:03:10.580Z,1.90
2022-07-29T11:06:08.761Z,2.17
2022-07-29T11:08:37.811Z,1.90
2022-07-29T11:11:34.892Z,1.60
2022-07-29T11:14:10.426Z,1.90
2022-07-29T11:17:06.588Z,2.10
2022-07-29T11:19:40.285Z,2.07
2022-07-29T11:22:16.509Z,1.73
2022-07-29T11:24:49.363Z,2.03
2022-07-29T11:27:23.544Z,1.60
2022-07-29T11:30:03.383Z,1.63
2022-07-29T11:32:41.016Z,1.90
2022-07-29T11:35:19.153Z,1.80
2022-07-29T11:37:52.495Z,1.83
2022-07-29T11:40:25.565Z,1.67
2022-07-29T11:42:55.284Z,1.67
2022-07-29T11:45:44.231Z,1.70
2022-07-29T11:48:29.444Z,2.17
2022-07-29T11:51:03.065Z,1.57
2022-07-29T11:53:33.433Z,1.80
2022-07-29T11:56:03.838Z,2.13
2022-07-29T11:58:34.241Z,1.80
2022-07-29T12:01:05.824Z,1.60
2022-07-29T12:03:37.072Z,2.00
2022-07-29T12:06:18.017Z,2.30
2022-07-29T12:08:48.551Z,2.17
2022-07-29T12:11:23.448Z,2.00
2022-07-29T12:13:54.223Z,1.87
2022-07-29T12:16:29.611Z,2.20
2022-07-29T12:19:04.000Z,1.80
2022-07-29T12:21:56.165Z,1.87
2022-07-29T12:24:26.663Z,1.80
2022-07-29T12:26:57.803Z,1.90
2022-07-29T12:29:33.623Z,2.10
2022-07-29T12:32:15.071Z,2.67
2022-07-29T12:34:49.630Z,2.40
2022-07-29T12:37:19.220Z,1.73
2022-07-29T12:39:49.533Z,1.87
2022-07-29T12:42:19.239Z,1.90
2022-07-29T12:44:50.419Z,2.07
2022-07-29T12:47:21.384Z,1.87
2022-07-29T12:49:51.508Z,2.10
2022-07-29T12:52:28.410Z,2.07
2022-07-29T12:54:58.241Z,1.77
2022-07-29T12:57:28.213Z,1.63
2022-07-29T13:00:10.041Z,1.80
2022-07-29T13:02:41.961Z,1.70
2022-07-29T13:05:13.014Z,1.87
2022-07-29T13:07:55.033Z,1.80
2022-07-29T13:10:26.521Z,1.77
2022-07-29T13:13:06.737Z,1.73
2022-07-29T13:15:36.909Z,2.27
2022-07-29T13:18:28.616Z,1.70
2022-07-29T13:20:59.521Z,1.50
2022-07-29T13:23:29.013Z,1.90
2022-07-29T13:25:58.310Z,2.17
2022-07-29T13:28:27.439Z,1.83
2022-07-29T13:30:56.836Z,1.70
2022-07-29T13:33:27.267Z,1.63
2022-07-29T13:35:57.346Z,2.37
2022-07-29T13:38:31.189Z,1.93
2022-07-29T13:41:01.389Z,1.43
2022-07-29T13:43:30.721Z,1.90
2022-07-29T13:45:59.931Z,2.10
2022-07-29T13:48:30.476Z,1.63
2022-07-29T13:50:59.970Z,1.73
2022-07-29T13:53:30.945Z,2.07
2022-07-29T13:56:00.392Z,1.83
2022-07-29T13:58:29.815Z,2.53
2022-07-29T14:00:59.476Z,1.90
2022-07-29T14:03:30.353Z,1.93
2022-07-29T14:06:01.377Z,2.57
2022-07-29T14:08:30.825Z,1.50
2022-07-29T14:10:59.861Z,1.97
2022-07-29T14:13:29.345Z,2.07
2022-07-29T14:15:59.649Z,1.90
2022-07-29T14:18:30.657Z,1.50
2022-07-29T14:21:00.792Z,1.60
2022-07-29T14:23:30.103Z,1.60
2022-07-29T14:25:59.836Z,1.70
2022-07-29T14:28:30.519Z,2.03
2022-07-29T14:30:59.729Z,1.77
2022-07-29T14:33:30.944Z,1.80
2022-07-29T14:36:01.103Z,1.50
2022-07-29T14:38:32.549Z,1.63
2022-07-29T14:41:02.705Z,1.87
2022-07-29T14:43:31.888Z,1.70
2022-07-29T14:46:04.109Z,2.00
2022-07-29T14:48:39.685Z,1.50
2022-07-29T14:51:09.167Z,1.53
2022-07-29T14:53:38.725Z,1.77
2022-07-29T14:56:35.049Z,1.80
2022-07-29T14:58:57.126Z,1.80
2022-07-29T15:01:26.683Z,1.60
2022-07-29T15:03:59.810Z,1.43
2022-07-29T15:06:29.749Z,1.90
2022-07-29T15:08:59.571Z,2.00
2022-07-29T15:11:28.589Z,1.87
2022-07-29T15:13:57.537Z,1.73
2022-07-29T15:16:27.469Z,1.80
2022-07-29T15:19:01.139Z,1.50
2022-07-29T15:21:31.046Z,1.70
2022-07-29T15:24:01.463Z,1.87
2022-07-29T15:26:30.779Z,1.83
2022-07-29T15:29:00.369Z,1.70
2022-07-29T15:31:32.913Z,1.80
2022-07-29T15:34:05.906Z,1.20
2022-07-29T15:36:51.510Z,1.67
2022-07-29T15:39:23.038Z,1.53
2022-07-29T15:41:53.327Z,1.60
2022-07-29T15:44:25.045Z,1.70
2022-07-29T15:47:07.476Z,1.80
2022-07-29T15:49:48.786Z,1.47
2022-07-29T15:52:24.933Z,1.77
2022-07-29T15:54:56.349Z,1.80
2022-07-29T15:57:26.131Z,1.50
2022-07-29T15:59:55.911Z,1.70
2022-07-29T16:02:24.771Z,1.90
2022-07-29T16:04:55.183Z,1.80
2022-07-29T16:07:24.265Z,1.50
2022-07-29T16:10:00.125Z,1.87
2022-07-29T16:12:31.300Z,1.50
2022-07-29T16:15:06.374Z,1.60
2022-07-29T16:17:39.190Z,1.80
2022-07-29T16:20:11.400Z,1.90
2022-07-29T16:22:43.167Z,2.03
2022-07-29T16:25:12.292Z,2.70
2022-07-29T16:27:41.499Z,1.90
2022-07-29T16:30:13.538Z,1.80
2022-07-29T16:32:43.490Z,2.10
2022-07-29T16:35:15.007Z,1.83
2022-07-29T16:37:44.565Z,1.80
2022-07-29T16:40:16.067Z,1.90
2022-07-29T16:42:47.367Z,1.67
2022-07-29T16:45:18.059Z,1.73
2022-07-29T16:47:50.689Z,2.50
2022-07-29T16:50:22.219Z,1.90
2022-07-29T16:52:52.812Z,2.03
2022-07-29T16:55:23.790Z,2.00
2022-07-29T16:57:53.994Z,2.20
2022-07-29T17:00:24.313Z,2.23
2022-07-29T17:02:53.862Z,1.90
2022-07-29T17:05:25.728Z,1.80
2022-07-29T17:07:54.963Z,1.63
2022-07-29T17:10:24.900Z,2.07
2022-07-29T17:12:57.431Z,1.83
2022-07-29T17:15:27.423Z,1.73
2022-07-29T17:17:57.429Z,2.03
2022-07-29T17:20:29.009Z,2.10
2022-07-29T17:22:59.381Z,2.03
2022-07-29T17:25:28.640Z,2.00
2022-07-29T17:28:00.948Z,1.80
2022-07-29T17:30:30.708Z,2.30
2022-07-29T17:33:00.233Z,2.00
2022-07-29T17:35:49.181Z,1.97
2022-07-29T17:38:18.728Z,1.90
2022-07-29T17:40:48.046Z,1.63
2022-07-29T17:43:17.273Z,1.97
2022-07-29T17:45:48.748Z,1.97
2022-07-29T17:48:19.149Z,2.20
2022-07-29T17:50:50.477Z,2.20
2022-07-29T17:53:20.797Z,1.83
2022-07-29T17:55:50.008Z,2.00
2022-07-29T17:58:19.697Z,2.00
2022-07-29T18:00:48.639Z,2.10
2022-07-29T18:03:18.658Z,1.97
2022-07-29T18:05:50.203Z,2.10
2022-07-29T18:08:20.346Z,2.17
2022-07-29T18:10:50.143Z,2.07
2022-07-29T18:13:19.724Z,2.07
2022-07-29T18:15:49.339Z,1.90
2022-07-29T18:18:19.481Z,1.87
2022-07-29T18:20:51.087Z,2.10
2022-07-29T18:23:20.550Z,2.10
2022-07-29T18:25:49.702Z,1.90
2022-07-29T18:28:19.939Z,1.90
2022-07-29T18:30:50.527Z,1.80
2022-07-29T18:33:22.199Z,1.83
2022-07-29T18:36:10.608Z,1.60
2022-07-29T18:38:41.989Z,1.73
2022-07-29T18:41:11.989Z,2.07
2022-07-29T18:43:41.110Z,1.83
2022-07-29T18:46:10.170Z,1.90
2022-07-29T18:48:40.521Z,2.30
2022-07-29T18:51:11.622Z,2.10
2022-07-29T18:53:41.033Z,1.90
2022-07-29T18:56:10.536Z,2.47
2022-07-29T18:58:40.241Z,2.00
2022-07-29T19:01:14.762Z,2.07
2022-07-29T19:03:46.598Z,1.90
2022-07-29T19:06:19.024Z,1.80
2022-07-29T19:08:52.853Z,2.00
2022-07-29T19:11:22.005Z,2.30
2022-07-29T19:13:51.829Z,2.30
2022-07-29T19:16:21.706Z,2.07
2022-07-29T19:18:52.014Z,2.60
2022-07-29T19:21:22.688Z,2.10
2022-07-29T19:24:05.838Z,2.27
2022-07-29T19:26:46.967Z,2.23
2022-07-29T19:29:17.089Z,2.20
2022-07-29T19:31:47.272Z,2.40
2022-07-29T19:34:17.181Z,2.47
2022-07-29T19:36:48.267Z,2.13
2022-07-29T19:39:17.675Z,2.30
2022-07-29T19:42:03.387Z,2.07
2022-07-29T19:44:35.455Z,2.43
2022-07-29T19:47:07.617Z,2.10
2022-07-29T19:49:40.008Z,2.20
2022-07-29T19:52:13.681Z,2.00
2022-07-29T19:54:44.795Z,2.13
2022-07-29T19:57:14.212Z,2.00
2022-07-29T19:59:44.579Z,2.63
2022-07-29T20:02:13.820Z,2.17
2022-07-29T20:04:46.351Z,2.10
2022-07-29T20:07:18.981Z,2.40
2022-07-29T20:09:49.620Z,2.33
2022-07-29T20:12:19.248Z,2.47
2022-07-29T20:14:48.608Z,2.33
2022-07-29T20:17:19.766Z,2.13
2022-07-29T20:19:48.859Z,2.60
2022-07-29T20:22:21.473Z,2.43
2022-07-29T20:24:51.247Z,2.43
2022-07-29T20:27:20.761Z,2.23
2022-07-29T20:29:51.707Z,2.37
2022-07-29T20:32:22.057Z,2.40
2022-07-29T20:34:51.873Z,2.23
2022-07-29T20:37:22.105Z,2.27
2022-07-29T20:39:52.588Z,2.10
2022-07-29T20:42:24.926Z,1.90
2022-07-29T20:44:54.605Z,2.17
2022-07-29T20:47:24.223Z,2.27
2022-07-29T20:49:53.029Z,2.33
2022-07-29T20:52:24.142Z,2.23
2022-07-29T20:54:55.156Z,2.40
2022-07-29T20:57:39.390Z,2.30
2022-07-29T21:00:10.408Z,2.00
2022-07-29T21:02:39.120Z,2.30
2022-07-29T21:05:09.000Z,2.37
2022-07-29T21:07:39.288Z,2.53
2022-07-29T21:10:09.819Z,2.13
2022-07-29T21:12:38.790Z,2.10
2022-07-29T21:15:09.454Z,2.00
2022-07-29T21:17:40.887Z,2.47
2022-07-29T21:20:11.820Z,2.20
2022-07-29T21:22:43.425Z,2.60
2022-07-29T21:25:12.972Z,2.53
2022-07-29T21:27:59.485Z,2.10
2022-07-29T21:30:28.857Z,2.07
2022-07-29T21:32:58.244Z,2.20
2022-07-29T21:35:35.758Z,2.57
2022-07-29T21:38:18.767Z,2.60
2022-07-29T21:40:49.526Z,2.33
2022-07-29T21:43:19.217Z,2.50
2022-07-29T21:45:50.895Z,1.90
2022-07-29T21:48:20.812Z,2.30
2022-07-29T21:50:50.656Z,2.40
2022-07-29T21:53:22.067Z,2.30
2022-07-29T21:55:53.853Z,2.30
2022-07-29T21:58:24.956Z,2.40
2022-07-29T22:00:54.510Z,2.27
2022-07-29T22:03:24.307Z,2.40
2022-07-29T22:05:54.564Z,2.67
2022-07-29T22:08:25.663Z,2.53
2022-07-29T22:10:55.279Z,2.43
2022-07-29T22:13:24.116Z,2.57
2022-07-29T22:15:53.789Z,2.47
2022-07-29T22:18:23.653Z,2.50
2022-07-29T22:20:53.029Z,3.03
2022-07-29T22:23:23.082Z,2.50
2022-07-29T22:25:53.849Z,2.90
2022-07-29T22:28:23.250Z,2.67
2022-07-29T22:30:52.378Z,2.97
2022-07-29T22:33:22.208Z,2.40
2022-07-29T22:35:52.014Z,2.10
2022-07-29T22:38:21.546Z,2.43
2022-07-29T22:40:52.855Z,2.00
2022-07-29T22:43:22.236Z,2.50
2022-07-29T22:45:51.606Z,2.73
2022-07-29T22:48:20.668Z,2.43
2022-07-29T22:50:49.793Z,2.50
2022-07-29T22:53:19.393Z,2.40
2022-07-29T22:55:48.564Z,2.33
2022-07-29T22:58:19.486Z,2.60
2022-07-29T23:00:48.900Z,2.90
2022-07-29T23:03:17.914Z,3.03
2022-07-29T23:05:47.268Z,2.70
2022-07-29T23:08:16.444Z,2.20
2022-07-29T23:10:45.169Z,2.30
2022-07-29T23:13:15.188Z,2.60
2022-07-29T23:15:46.513Z,2.53
2022-07-29T23:18:16.501Z,2.57
2022-07-29T23:20:47.044Z,2.70
2022-07-29T23:23:17.056Z,2.87
2022-07-29T23:25:46.336Z,2.70
2022-07-29T23:28:15.973Z,2.50
2022-07-29T23:30:47.781Z,2.43
2022-07-29T23:33:17.026Z,2.50
2022-07-29T23:35:46.538Z,2.60
2022-07-29T23:38:16.022Z,2.60
2022-07-29T23:40:45.806Z,2.20
2022-07-29T23:43:15.082Z,2.17
2022-07-29T23:45:48.771Z,2.10
2022-07-29T23:48:20.950Z,2.50
2022-07-29T23:50:50.115Z,2.10
2022-07-29T23:53:19.370Z,2.47
2022-07-29T23:55:48.295Z,1.97
2022-07-29T23:58:19.210Z,2.27
